Time;durP1;ratioP1;P1;durP2;ratioP2;P2;SDS_P1;SDS_P2;PMS_P1;PMS_P2;Temp;Humidity;BMP_temperature;BMP_pressure;BME280_temperature;BME280_humidity;BME280_pressure;Samples;Min_cycle;Max_cycle;Signal;HPM_P1;HPM_P2
2022/01/06 00:00:15;;;;;;;5.25;2.10;;;;;8.30;101295.00;;;;5024170;28;20215;-80
2022/01/06 00:02:42;;;;;;;6.13;2.50;;;;;8.20;101292.00;;;;5019180;28;20201;-79
2022/01/06 00:05:10;;;;;;;6.18;2.47;;;;;8.20;101302.00;;;;5011511;28;20220;-79
2022/01/06 00:07:37;;;;;;;7.72;2.70;;;;;8.20;101300.00;;;;5008046;28;20216;-79
2022/01/06 00:10:09;;;;;;;4.38;2.53;;;;;8.20;101293.00;;;;5025846;28;20655;-79
2022/01/06 00:12:43;;;;;;;4.68;2.30;;;;;8.20;101284.00;;;;5017752;28;20244;-80
2022/01/06 00:15:26;;;;;;;5.82;2.72;;;;;8.10;101297.00;;;;5011602;28;20209;-79
2022/01/06 00:18:14;;;;;;;3.67;2.50;;;;;8.20;101309.00;;;;5007588;28;20232;-80
2022/01/06 00:23:31;;;;;;;5.72;2.33;;;;;8.10;101311.00;;;;5009752;28;20246;-79
2022/01/06 00:26:00;;;;;;;4.15;1.90;;;;;8.10;101317.00;;;;5007993;28;20572;-79
2022/01/06 00:28:28;;;;;;;5.60;2.13;;;;;8.10;101313.00;;;;5007402;28;20228;-79
2022/01/06 00:30:56;;;;;;;5.18;1.67;;;;;8.10;101306.00;;;;5007974;28;20196;-79
2022/01/06 00:33:24;;;;;;;5.45;2.00;;;;;8.10;101306.00;;;;5008210;28;20197;-79
2022/01/06 00:35:51;;;;;;;3.75;1.88;;;;;8.00;101319.00;;;;5010475;28;20209;-79
2022/01/06 00:38:19;;;;;;;7.10;2.22;;;;;8.00;101322.00;;;;5009866;28;20212;-79
2022/01/06 00:40:46;;;;;;;6.55;2.05;;;;;8.00;101315.00;;;;5010585;28;20204;-79
2022/01/06 00:43:14;;;;;;;4.78;1.80;;;;;8.00;101315.00;;;;5013765;28;21030;-79
2022/01/06 00:45:41;;;;;;;3.28;1.70;;;;;8.00;101320.00;;;;5007283;28;20201;-79
2022/01/06 00:48:10;;;;;;;4.28;1.55;;;;;8.00;101319.00;;;;5016607;28;20212;-79
2022/01/06 00:50:38;;;;;;;3.28;1.15;;;;;8.00;101316.00;;;;5024630;28;20685;-79
2022/01/06 00:53:06;;;;;;;3.03;1.20;;;;;8.00;101321.00;;;;5026397;28;20212;-79
2022/01/06 00:55:34;;;;;;;3.88;1.10;;;;;7.90;101325.00;;;;5024252;28;20204;-79
2022/01/06 00:58:02;;;;;;;5.50;1.50;;;;;7.90;101327.00;;;;5025579;28;20200;-79
2022/01/06 01:00:38;;;;;;;3.35;0.95;;;;;7.90;101325.00;;;;5030645;28;20204;-80
2022/01/06 01:03:06;;;;;;;3.70;0.90;;;;;7.90;101330.00;;;;5027470;28;20195;-79
2022/01/06 01:05:35;;;;;;;3.60;1.13;;;;;7.90;101332.00;;;;5029615;28;20223;-79
2022/01/06 01:08:02;;;;;;;4.47;1.10;;;;;7.90;101327.00;;;;5024588;28;20224;-80
2022/01/06 01:10:30;;;;;;;3.33;1.00;;;;;7.90;101322.00;;;;5026049;28;20568;-80
2022/01/06 01:12:58;;;;;;;3.03;0.85;;;;;7.80;101324.00;;;;5020234;28;20200;-79
2022/01/06 01:15:27;;;;;;;3.10;1.17;;;;;7.80;101325.00;;;;5010586;28;20209;-78
2022/01/06 01:17:54;;;;;;;2.50;0.88;;;;;7.80;101329.00;;;;5015744;28;20229;-80
2022/01/06 01:20:23;;;;;;;3.85;1.25;;;;;7.80;101341.00;;;;5015191;28;20208;-79
2022/01/06 01:22:51;;;;;;;4.45;0.85;;;;;7.80;101337.00;;;;5020644;28;20188;-79
2022/01/06 01:25:19;;;;;;;3.60;0.90;;;;;7.80;101344.00;;;;5020693;28;20201;-79
2022/01/06 01:27:46;;;;;;;2.85;0.80;;;;;7.80;101340.00;;;;5022035;28;20223;-80
2022/01/06 01:30:15;;;;;;;3.78;1.00;;;;;7.80;101348.00;;;;5029173;28;20211;-79
2022/01/06 01:32:49;;;;;;;5.25;0.68;;;;;7.80;101349.00;;;;5023161;28;20204;-80
2022/01/06 01:35:16;;;;;;;2.08;0.85;;;;;7.70;101363.00;;;;5029297;28;21015;-79
2022/01/06 01:37:44;;;;;;;3.53;0.73;;;;;7.70;101357.00;;;;5019705;28;20200;-79
2022/01/06 01:40:13;;;;;;;3.88;0.82;;;;;7.70;101373.00;;;;5029799;28;20686;-79
2022/01/06 01:42:41;;;;;;;1.58;0.75;;;;;7.70;101371.00;;;;5018253;28;20200;-79
2022/01/06 01:45:09;;;;;;;2.50;0.80;;;;;7.70;101378.00;;;;5010638;28;20251;-80
2022/01/06 01:47:43;;;;;;;4.22;0.80;;;;;7.70;101394.00;;;;5011187;28;20675;-79
2022/01/06 01:50:15;;;;;;;1.60;0.73;;;;;7.70;101390.00;;;;5021969;28;20200;-80
2022/01/06 01:52:46;;;;;;;2.08;0.90;;;;;7.70;101394.00;;;;5022430;28;20215;-79
2022/01/06 01:55:17;;;;;;;4.80;0.80;;;;;7.60;101390.00;;;;5009798;28;20193;-80
2022/01/06 01:57:44;;;;;;;1.50;0.80;;;;;7.70;101392.00;;;;5009979;28;20224;-79
2022/01/06 02:00:14;;;;;;;2.30;0.60;;;;;7.70;101397.00;;;;5014388;28;20196;-79
2022/01/06 02:02:42;;;;;;;2.92;0.60;;;;;7.70;101400.00;;;;5023491;28;20246;-79
2022/01/06 02:05:11;;;;;;;2.25;0.98;;;;;7.70;101394.00;;;;5016607;28;20710;-79
2022/01/06 02:07:40;;;;;;;2.75;0.90;;;;;7.60;101405.00;;;;5011679;28;20227;-79
2022/01/06 02:10:10;;;;;;;1.48;0.60;;;;;7.60;101403.00;;;;5023686;28;20287;-79
2022/01/06 02:12:41;;;;;;;2.55;0.70;;;;;7.60;101412.00;;;;5029754;28;20211;-79
2022/01/06 02:15:11;;;;;;;5.50;0.73;;;;;7.60;101422.00;;;;5026432;28;20204;-79
2022/01/06 02:17:39;;;;;;;3.58;0.47;;;;;7.60;101418.00;;;;5028351;28;20327;-79
2022/01/06 02:20:09;;;;;;;3.65;0.75;;;;;7.60;101417.00;;;;5021981;28;20204;-79
2022/01/06 02:22:37;;;;;;;2.95;0.77;;;;;7.60;101415.00;;;;5015079;28;20196;-79
2022/01/06 02:25:16;;;;;;;4.93;1.00;;;;;7.50;101421.00;;;;5010139;28;20204;-80
2022/01/06 02:27:44;;;;;;;3.40;1.13;;;;;7.60;101421.00;;;;5010567;28;20221;-79
2022/01/06 02:30:13;;;;;;;2.38;1.10;;;;;7.60;101421.00;;;;5021042;28;20185;-79
2022/01/06 02:32:41;;;;;;;4.20;1.25;;;;;7.60;101423.00;;;;5027692;28;20203;-79
2022/01/06 02:35:13;;;;;;;4.85;1.20;;;;;7.50;101422.00;;;;5027144;28;20211;-79
2022/01/06 02:37:41;;;;;;;2.38;0.77;;;;;7.60;101420.00;;;;5025125;28;20197;-79
2022/01/06 02:40:10;;;;;;;3.30;0.98;;;;;7.50;101421.00;;;;5023940;28;20205;-80
2022/01/06 02:42:42;;;;;;;3.05;0.63;;;;;7.50;101420.00;;;;5008796;28;20196;-79
2022/01/06 02:45:10;;;;;;;2.95;0.73;;;;;7.50;101423.00;;;;5016873;28;20200;-80
2022/01/06 02:47:38;;;;;;;2.60;0.70;;;;;7.50;101424.00;;;;5028859;28;20231;-79
2022/01/06 02:50:06;;;;;;;3.58;0.73;;;;;7.50;101422.00;;;;5017347;28;20191;-80
2022/01/06 02:52:35;;;;;;;3.15;0.90;;;;;7.50;101423.00;;;;5009103;28;20201;-79
2022/01/06 02:55:02;;;;;;;2.00;0.52;;;;;7.50;101427.00;;;;5018184;28;20200;-79
2022/01/06 02:57:30;;;;;;;6.03;0.70;;;;;7.50;101426.00;;;;5015764;28;20283;-80
2022/01/06 02:59:57;;;;;;;2.72;0.88;;;;;7.50;101424.00;;;;5027624;28;20192;-80
2022/01/06 03:02:26;;;;;;;1.65;0.50;;;;;7.50;101430.00;;;;5021480;28;20394;-80
2022/01/06 03:04:53;;;;;;;3.78;0.73;;;;;7.50;101433.00;;;;5024734;28;20694;-80
2022/01/06 03:07:21;;;;;;;2.47;0.65;;;;;7.50;101432.00;;;;5025804;28;20331;-79
2022/01/06 03:09:54;;;;;;;3.45;0.68;;;;;7.50;101432.00;;;;5021809;28;20690;-80
2022/01/06 03:12:27;;;;;;;3.92;0.63;;;;;7.50;101435.00;;;;5012782;28;20224;-80
2022/01/06 03:14:54;;;;;;;3.72;0.68;;;;;7.50;101441.00;;;;5016952;28;20198;-80
2022/01/06 03:17:22;;;;;;;1.42;0.30;;;;;7.50;101438.00;;;;5010299;28;20224;-79
2022/01/06 03:19:49;;;;;;;4.13;0.73;;;;;7.50;101445.00;;;;5016677;28;20195;-79
2022/01/06 03:22:16;;;;;;;1.88;0.60;;;;;7.50;101447.00;;;;5028881;28;20193;-80
2022/01/06 03:24:44;;;;;;;2.65;0.40;;;;;7.50;101442.00;;;;5028055;28;20200;-79
2022/01/06 03:27:12;;;;;;;3.20;0.95;;;;;7.40;101445.00;;;;5024851;28;20204;-80
2022/01/06 03:29:40;;;;;;;3.47;0.93;;;;;7.40;101445.00;;;;5021544;28;20734;-79
2022/01/06 03:32:07;;;;;;;2.38;0.75;;;;;7.40;101441.00;;;;5010695;28;20216;-80
2022/01/06 03:34:36;;;;;;;1.55;0.50;;;;;7.40;101449.00;;;;5021793;28;20200;-80
2022/01/06 03:37:06;;;;;;;2.78;0.57;;;;;7.40;101450.00;;;;5026590;28;20206;-79
2022/01/06 03:39:33;;;;;;;1.80;0.52;;;;;7.40;101442.00;;;;5011796;28;20193;-79
2022/01/06 03:42:00;;;;;;;1.38;0.30;;;;;7.40;101452.00;;;;5025286;28;20200;-79
2022/01/06 03:44:29;;;;;;;3.10;0.82;;;;;7.40;101448.00;;;;5009087;28;20189;-79
2022/01/06 03:46:57;;;;;;;2.33;0.50;;;;;7.40;101451.00;;;;5015630;28;20212;-79
2022/01/06 03:49:24;;;;;;;2.35;0.60;;;;;7.40;101447.00;;;;5025473;28;20212;-79
2022/01/06 03:51:52;;;;;;;3.22;1.15;;;;;7.40;101447.00;;;;5014428;28;20197;-79
2022/01/06 03:54:19;;;;;;;5.45;0.65;;;;;7.40;101446.00;;;;5016863;28;20200;-80
2022/01/06 03:56:48;;;;;;;1.95;0.65;;;;;7.40;101440.00;;;;5016303;28;20583;-79
2022/01/06 03:59:17;;;;;;;2.50;0.80;;;;;7.40;101441.00;;;;5009175;28;20674;-79
2022/01/06 04:01:46;;;;;;;1.40;0.63;;;;;7.40;101458.00;;;;5011291;28;20212;-79
2022/01/06 04:04:17;;;;;;;1.50;0.57;;;;;7.40;101452.00;;;;5026169;28;20278;-79
2022/01/06 04:06:44;;;;;;;3.10;0.75;;;;;7.40;101464.00;;;;5027362;28;20225;-80
2022/01/06 04:09:11;;;;;;;4.85;0.65;;;;;7.40;101460.00;;;;5023215;28;20220;-79
2022/01/06 04:11:39;;;;;;;1.65;0.77;;;;;7.40;101465.00;;;;5010106;28;20262;-79
2022/01/06 04:14:06;;;;;;;1.45;0.38;;;;;7.40;101468.00;;;;5009424;28;20205;-79
2022/01/06 04:16:36;;;;;;;2.83;0.63;;;;;7.40;101472.00;;;;5010663;28;20201;-79
2022/01/06 04:19:05;;;;;;;2.70;0.55;;;;;7.40;101473.00;;;;5023982;28;20208;-79
2022/01/06 04:21:32;;;;;;;2.28;0.60;;;;;7.40;101470.00;;;;5022565;28;20720;-79
2022/01/06 04:23:59;;;;;;;2.20;0.60;;;;;7.40;101488.00;;;;5026510;28;20199;-79
2022/01/06 04:26:27;;;;;;;2.13;0.68;;;;;7.40;101482.00;;;;5011514;28;20207;-79
2022/01/06 04:28:54;;;;;;;3.53;0.60;;;;;7.40;101478.00;;;;5024166;28;20227;-79
2022/01/06 04:31:22;;;;;;;1.58;0.63;;;;;7.40;101481.00;;;;5016196;28;20682;-79
2022/01/06 04:33:49;;;;;;;4.63;0.40;;;;;7.40;101479.00;;;;5029983;28;21160;-79
2022/01/06 04:36:19;;;;;;;2.33;0.40;;;;;7.30;101485.00;;;;5015461;28;20193;-80
2022/01/06 04:38:47;;;;;;;1.63;0.40;;;;;7.30;101497.00;;;;5025133;28;20208;-79
2022/01/06 04:41:14;;;;;;;1.30;0.35;;;;;7.30;101494.00;;;;5023289;28;20193;-79
2022/01/06 04:43:41;;;;;;;7.97;0.93;;;;;7.30;101499.00;;;;5028602;28;20197;-80
2022/01/06 04:46:08;;;;;;;3.47;0.65;;;;;7.30;101497.00;;;;5027260;28;20215;-80
2022/01/06 04:48:37;;;;;;;1.42;0.32;;;;;7.30;101496.00;;;;5017665;28;20220;-79
2022/01/06 04:51:05;;;;;;;1.08;0.30;;;;;7.30;101504.00;;;;5030872;28;20283;-79
2022/01/06 04:53:33;;;;;;;3.38;0.63;;;;;7.30;101505.00;;;;5027664;28;20633;-79
2022/01/06 04:56:01;;;;;;;3.35;0.80;;;;;7.30;101500.00;;;;5013465;28;20201;-79
2022/01/06 04:58:28;;;;;;;1.90;0.50;;;;;7.30;101503.00;;;;5021060;28;20199;-79
2022/01/06 05:00:56;;;;;;;1.60;0.57;;;;;7.30;101513.00;;;;5031836;28;20271;-79
2022/01/06 05:03:23;;;;;;;3.30;0.90;;;;;7.30;101511.00;;;;5030335;28;20208;-79
2022/01/06 05:05:50;;;;;;;1.80;0.77;;;;;7.30;101516.00;;;;5023293;28;20215;-80
2022/01/06 05:08:18;;;;;;;4.53;0.47;;;;;7.30;101514.00;;;;5026911;28;20912;-80
2022/01/06 05:10:46;;;;;;;4.07;1.00;;;;;7.30;101520.00;;;;5031920;28;20939;-80
2022/01/06 05:13:14;;;;;;;1.30;0.73;;;;;7.30;101517.00;;;;5013299;28;20259;-80
2022/01/06 05:15:41;;;;;;;4.47;0.70;;;;;7.30;101523.00;;;;5015929;28;20201;-79
2022/01/06 05:18:08;;;;;;;2.38;0.75;;;;;7.30;101524.00;;;;5016453;28;20706;-80
2022/01/06 05:20:38;;;;;;;2.28;0.52;;;;;7.30;101526.00;;;;5025948;28;20204;-80
2022/01/06 05:23:05;;;;;;;1.17;0.40;;;;;7.30;101537.00;;;;5017634;28;20734;-80
2022/01/06 05:25:33;;;;;;;6.68;0.98;;;;;7.30;101526.00;;;;5020701;28;20206;-80
2022/01/06 05:28:01;;;;;;;2.28;0.55;;;;;7.30;101528.00;;;;5025084;28;20203;-79
2022/01/06 05:30:29;;;;;;;6.18;1.00;;;;;7.30;101528.00;;;;5026861;28;20223;-79
2022/01/06 05:32:56;;;;;;;2.83;0.77;;;;;7.30;101534.00;;;;5017469;28;20228;-80
2022/01/06 05:35:23;;;;;;;2.45;0.47;;;;;7.30;101534.00;;;;5022375;28;20200;-79
2022/01/06 05:37:50;;;;;;;4.50;0.50;;;;;7.30;101537.00;;;;5027055;28;20205;-79
2022/01/06 05:40:18;;;;;;;3.13;1.20;;;;;7.30;101538.00;;;;5028391;28;20203;-80
2022/01/06 05:42:45;;;;;;;3.15;0.52;;;;;7.30;101536.00;;;;5024490;28;20533;-79
2022/01/06 05:45:15;;;;;;;4.30;0.63;;;;;7.30;101543.00;;;;5011231;28;20204;-80
2022/01/06 05:47:43;;;;;;;2.75;0.75;;;;;7.30;101538.00;;;;5015356;28;20196;-80
2022/01/06 05:50:10;;;;;;;2.03;0.52;;;;;7.30;101541.00;;;;5019738;28;20213;-79
2022/01/06 05:52:38;;;;;;;2.20;0.57;;;;;7.30;101547.00;;;;5017891;28;20197;-80
2022/01/06 05:55:06;;;;;;;3.42;0.60;;;;;7.30;101555.00;;;;5030075;28;20208;-80
2022/01/06 05:57:33;;;;;;;3.05;0.55;;;;;7.30;101554.00;;;;5028579;28;20199;-80
2022/01/06 06:00:00;;;;;;;2.30;0.73;;;;;7.20;101547.00;;;;5010361;28;20200;-79
2022/01/06 06:02:29;;;;;;;2.60;0.77;;;;;7.20;101559.00;;;;5020060;28;20227;-80
2022/01/06 06:04:56;;;;;;;2.95;0.47;;;;;7.20;101561.00;;;;5030452;28;20231;-80
2022/01/06 06:07:23;;;;;;;2.95;0.60;;;;;7.20;101569.00;;;;5024988;28;20893;-79
2022/01/06 06:09:51;;;;;;;3.33;0.55;;;;;7.20;101574.00;;;;5021818;28;20251;-80
2022/01/06 06:12:20;;;;;;;2.72;0.70;;;;;7.20;101578.00;;;;5010330;28;20247;-80
2022/01/06 06:14:47;;;;;;;2.20;0.90;;;;;7.20;101581.00;;;;5010590;28;20241;-80
2022/01/06 06:17:15;;;;;;;2.15;0.55;;;;;7.20;101577.00;;;;5010137;28;20224;-80
2022/01/06 06:19:44;;;;;;;3.90;0.68;;;;;7.20;101585.00;;;;5021164;28;20209;-79
2022/01/06 06:22:11;;;;;;;2.00;0.40;;;;;7.20;101594.00;;;;5019433;28;20698;-79
2022/01/06 06:24:38;;;;;;;2.85;0.80;;;;;7.20;101592.00;;;;5026403;28;20673;-80
2022/01/06 06:27:06;;;;;;;1.88;0.55;;;;;7.20;101590.00;;;;5019352;28;20674;-80
2022/01/06 06:29:33;;;;;;;1.85;0.65;;;;;7.20;101591.00;;;;5023804;28;20231;-80
2022/01/06 06:32:01;;;;;;;4.97;0.40;;;;;7.20;101596.00;;;;5009989;28;20708;-80
2022/01/06 06:34:28;;;;;;;1.17;0.40;;;;;7.20;101594.00;;;;5023807;28;20193;-80
2022/01/06 06:36:57;;;;;;;3.88;1.00;;;;;7.20;101598.00;;;;5016618;28;21159;-80
2022/01/06 06:39:24;;;;;;;1.60;0.63;;;;;7.20;101599.00;;;;5023736;28;20224;-80
2022/01/06 06:41:51;;;;;;;1.33;0.50;;;;;7.20;101612.00;;;;5028584;28;20667;-82
2022/01/06 06:44:20;;;;;;;3.00;1.25;;;;;7.20;101603.00;;;;5027949;28;20902;-80
2022/01/06 06:46:47;;;;;;;3.28;0.75;;;;;7.10;101616.00;;;;5013273;28;20250;-81
2022/01/06 06:49:14;;;;;;;1.65;0.47;;;;;7.20;101606.00;;;;5011111;28;20268;-81
2022/01/06 06:51:42;;;;;;;4.43;0.90;;;;;7.10;101613.00;;;;5007887;28;20201;-81
2022/01/06 06:54:13;;;;;;;4.43;0.77;;;;;7.10;101608.00;;;;5011671;28;20209;-81
2022/01/06 06:56:40;;;;;;;5.25;0.77;;;;;7.10;101612.00;;;;5008041;28;20263;-79
2022/01/06 06:59:08;;;;;;;3.58;0.98;;;;;7.10;101616.00;;;;5012256;28;20203;-80
2022/01/06 07:01:35;;;;;;;4.00;0.82;;;;;7.10;101623.00;;;;5009355;28;20201;-82
2022/01/06 07:04:02;;;;;;;3.08;0.80;;;;;7.10;101626.00;;;;5021621;28;20208;-80
2022/01/06 07:06:30;;;;;;;5.15;1.15;;;;;7.10;101623.00;;;;5013012;28;20216;-78
2022/01/06 07:08:57;;;;;;;2.25;0.75;;;;;7.10;101627.00;;;;5010037;28;20633;-79
2022/01/06 07:11:26;;;;;;;2.20;1.00;;;;;7.10;101634.00;;;;5012144;28;20231;-79
2022/01/06 07:13:53;;;;;;;3.53;1.10;;;;;7.10;101638.00;;;;5011380;28;20208;-79
2022/01/06 07:16:20;;;;;;;5.13;1.02;;;;;7.10;101637.00;;;;5024323;28;20200;-77
2022/01/06 07:18:48;;;;;;;4.15;0.68;;;;;7.10;101639.00;;;;5014785;28;20316;-77
2022/01/06 07:21:15;;;;;;;1.92;0.95;;;;;7.10;101637.00;;;;5012245;28;20693;-78
2022/01/06 07:23:42;;;;;;;4.60;0.75;;;;;7.10;101648.00;;;;5008542;28;20251;-78
2022/01/06 07:26:09;;;;;;;2.65;0.75;;;;;7.10;101648.00;;;;5009714;28;20200;-78
2022/01/06 07:28:38;;;;;;;2.90;1.20;;;;;7.00;101649.00;;;;5015684;28;20200;-78
2022/01/06 07:31:05;;;;;;;3.80;0.77;;;;;7.00;101649.00;;;;5014221;28;20216;-79
2022/01/06 07:33:33;;;;;;;2.28;0.70;;;;;7.00;101644.00;;;;5013751;28;20256;-78
2022/01/06 07:36:00;;;;;;;3.97;1.42;;;;;7.00;101656.00;;;;5023553;28;20201;-79
2022/01/06 07:38:27;;;;;;;1.60;0.68;;;;;7.00;101649.00;;;;5028649;28;20216;-79
2022/01/06 07:40:55;;;;;;;3.78;1.00;;;;;7.00;101654.00;;;;5024601;28;20204;-78
2022/01/06 07:43:22;;;;;;;2.80;1.10;;;;;7.00;101656.00;;;;5027586;28;20247;-78
2022/01/06 07:45:51;;;;;;;3.70;1.40;;;;;7.00;101661.00;;;;5024731;28;20208;-78
2022/01/06 07:48:25;;;;;;;7.45;1.38;;;;;7.00;101655.00;;;;5027989;28;20236;-78
2022/01/06 07:50:53;;;;;;;2.42;1.23;;;;;7.00;101658.00;;;;5027799;28;20216;-78
2022/01/06 07:53:20;;;;;;;3.65;1.50;;;;;7.00;101662.00;;;;5028934;28;20196;-79
2022/01/06 07:55:48;;;;;;;5.03;1.48;;;;;7.00;101669.00;;;;5020970;28;20684;-78
2022/01/06 07:58:15;;;;;;;3.20;1.38;;;;;7.00;101662.00;;;;5017700;28;20200;-78
2022/01/06 08:00:42;;;;;;;2.13;1.23;;;;;7.00;101678.00;;;;5008497;28;20196;-78
2022/01/06 08:03:11;;;;;;;3.55;1.42;;;;;7.00;101680.00;;;;5022417;28;20196;-79
2022/01/06 08:05:38;;;;;;;5.95;1.73;;;;;7.00;101686.00;;;;5028308;28;20808;-79
2022/01/06 08:08:05;;;;;;;5.18;1.63;;;;;7.10;101693.00;;;;5021902;28;20201;-79
2022/01/06 08:10:33;;;;;;;2.33;1.08;;;;;7.10;101690.00;;;;5017199;28;20224;-79
2022/01/06 08:13:01;;;;;;;2.42;1.00;;;;;7.10;101680.00;;;;5032886;28;20200;-79
2022/01/06 08:15:28;;;;;;;6.20;2.00;;;;;7.10;101674.00;;;;5024500;28;20201;-79
2022/01/06 08:17:55;;;;;;;4.25;1.35;;;;;7.10;101672.00;;;;5013383;28;20225;-79
2022/01/06 08:20:24;;;;;;;8.55;1.50;;;;;7.10;101667.00;;;;5032281;28;20618;-79
2022/01/06 08:22:51;;;;;;;3.85;1.88;;;;;7.10;101664.00;;;;5020604;28;20212;-79
2022/01/06 08:25:18;;;;;;;5.60;1.50;;;;;7.10;101671.00;;;;5027052;28;20203;-79
2022/01/06 08:27:45;;;;;;;4.35;1.30;;;;;7.10;101674.00;;;;5018639;28;20242;-80
2022/01/06 08:30:13;;;;;;;2.92;1.30;;;;;7.20;101686.00;;;;5026230;28;20243;-78
2022/01/06 08:32:40;;;;;;;4.82;2.13;;;;;7.20;101694.00;;;;5030414;28;20200;-80
2022/01/06 08:35:08;;;;;;;5.50;2.05;;;;;7.30;101690.00;;;;5028233;28;20581;-79
2022/01/06 08:37:38;;;;;;;8.43;1.60;;;;;7.30;101689.00;;;;5024606;28;20188;-79
2022/01/06 08:40:06;;;;;;;7.05;1.80;;;;;7.30;101690.00;;;;5022537;28;20200;-79
2022/01/06 08:42:34;;;;;;;4.63;1.98;;;;;7.40;101685.00;;;;5022212;28;20197;-80
2022/01/06 08:45:02;;;;;;;4.80;2.15;;;;;7.40;101686.00;;;;5013146;28;20213;-80
2022/01/06 08:47:30;;;;;;;5.32;1.52;;;;;7.50;101692.00;;;;5026446;28;20192;-79
2022/01/06 08:50:05;;;;;;;5.75;2.53;;;;;7.50;101693.00;;;;5029781;28;20592;-81
2022/01/06 08:52:34;;;;;;;2.47;1.38;;;;;7.60;101697.00;;;;5020666;28;20204;-80
2022/01/06 08:55:04;;;;;;;3.53;1.40;;;;;7.60;101693.00;;;;5022478;28;20646;-79
2022/01/06 08:57:31;;;;;;;3.78;1.85;;;;;7.60;101700.00;;;;5022848;28;20192;-81
2022/01/06 09:00:02;;;;;;;4.57;1.73;;;;;7.60;101694.00;;;;5018821;28;20572;-78
2022/01/06 09:02:29;;;;;;;4.07;1.90;;;;;7.70;101694.00;;;;5028026;28;20608;-79
2022/01/06 09:04:59;;;;;;;5.15;1.92;;;;;7.70;101704.00;;;;5017848;28;20963;-78
2022/01/06 09:07:26;;;;;;;3.67;1.35;;;;;7.70;101700.00;;;;5012967;28;20193;-79
2022/01/06 09:09:53;;;;;;;3.33;1.27;;;;;7.70;101706.00;;;;5020556;28;20228;-80
2022/01/06 09:12:22;;;;;;;2.58;1.20;;;;;7.70;101701.00;;;;5031000;28;20204;-79
2022/01/06 09:14:50;;;;;;;4.22;1.10;;;;;7.80;101696.00;;;;5014077;28;20255;-80
2022/01/06 09:17:18;;;;;;;2.47;1.05;;;;;7.80;101704.00;;;;5014455;28;20224;-80
2022/01/06 09:19:45;;;;;;;2.05;1.17;;;;;7.80;101701.00;;;;5023320;28;20674;-80
2022/01/06 09:22:12;;;;;;;3.78;1.25;;;;;7.90;101701.00;;;;5011731;28;20205;-79
2022/01/06 09:24:40;;;;;;;2.60;1.10;;;;;7.90;101709.00;;;;5012445;28;20276;-79
2022/01/06 09:27:07;;;;;;;3.45;1.30;;;;;7.90;101708.00;;;;5022063;28;20377;-79
2022/01/06 09:29:36;;;;;;;2.33;1.40;;;;;7.90;101710.00;;;;5020109;28;20649;-80
2022/01/06 09:32:05;;;;;;;2.22;1.17;;;;;7.90;101718.00;;;;5019552;28;20628;-82
2022/01/06 09:34:33;;;;;;;2.13;0.95;;;;;8.00;101718.00;;;;5027443;28;20196;-80
2022/01/06 09:37:00;;;;;;;2.83;1.20;;;;;8.00;101729.00;;;;5013085;28;20655;-80
2022/01/06 09:39:27;;;;;;;3.92;1.88;;;;;8.10;101729.00;;;;5021848;28;20229;-80
2022/01/06 09:41:55;;;;;;;2.92;1.42;;;;;8.10;101728.00;;;;5023247;28;20204;-80
2022/01/06 09:44:23;;;;;;;2.97;1.40;;;;;8.10;101727.00;;;;5033540;28;20192;-80
2022/01/06 09:46:54;;;;;;;4.60;1.83;;;;;8.10;101730.00;;;;5021094;28;20193;-80
2022/01/06 09:49:22;;;;;;;2.08;1.20;;;;;8.20;101739.00;;;;5028570;28;20188;-80
2022/01/06 09:51:51;;;;;;;2.92;1.27;;;;;8.20;101733.00;;;;5015438;28;20226;-80
2022/01/06 09:54:19;;;;;;;3.85;2.13;;;;;8.30;101748.00;;;;5011102;28;20216;-81
2022/01/06 09:56:47;;;;;;;4.68;1.40;;;;;8.30;101738.00;;;;5010771;28;20197;-81
2022/01/06 09:59:15;;;;;;;2.60;1.23;;;;;8.30;101739.00;;;;5016839;28;20523;-80
2022/01/06 10:01:43;;;;;;;3.03;1.10;;;;;8.30;101744.00;;;;5018604;28;20192;-81
2022/01/06 10:04:21;;;;;;;2.92;0.98;;;;;8.30;101734.00;;;;5030050;28;20204;-80
2022/01/06 10:07:00;;;;;;;3.38;1.10;;;;;8.40;101733.00;;;;5009980;28;20287;-80
2022/01/06 10:09:27;;;;;;;4.05;1.63;;;;;8.50;101735.00;;;;5021049;28;20195;-81
2022/01/06 10:11:58;;;;;;;2.30;0.73;;;;;8.50;101738.00;;;;5025858;28;20224;-81
2022/01/06 10:14:38;;;;;;;3.03;1.17;;;;;8.50;101736.00;;;;5020639;28;20203;-79
2022/01/06 10:17:06;;;;;;;2.65;0.88;;;;;8.60;101745.00;;;;5012822;28;20884;-84
2022/01/06 10:19:37;;;;;;;2.58;1.00;;;;;8.60;101741.00;;;;5018605;28;20197;-83
2022/01/06 10:22:04;;;;;;;1.83;1.00;;;;;8.70;101730.00;;;;5011158;28;20197;-84
2022/01/06 10:24:31;;;;;;;2.30;1.00;;;;;8.70;101739.00;;;;5010043;28;20204;-82
2022/01/06 10:27:02;;;;;;;4.20;1.35;;;;;8.80;101734.00;;;;5022042;28;20218;-84
2022/01/06 10:29:31;;;;;;;3.65;1.35;;;;;8.80;101736.00;;;;5012137;28;20570;-83
2022/01/06 10:32:06;;;;;;;2.92;1.00;;;;;8.80;101737.00;;;;5020455;28;20220;-83
2022/01/06 10:34:37;;;;;;;2.42;0.70;;;;;8.90;101728.00;;;;5026620;28;20196;-82
2022/01/06 10:37:16;;;;;;;4.45;1.17;;;;;9.00;101727.00;;;;5010182;28;20204;-83
2022/01/06 10:39:44;;;;;;;2.05;0.70;;;;;9.00;101724.00;;;;5015132;28;20196;-82
2022/01/06 10:42:12;;;;;;;3.30;1.20;;;;;9.10;101723.00;;;;5020354;28;20204;-83
2022/01/06 10:44:48;;;;;;;3.72;0.68;;;;;9.10;101724.00;;;;5023685;28;20546;-83
2022/01/06 10:47:16;;;;;;;3.83;0.90;;;;;9.20;101725.00;;;;5021433;28;21006;-83
2022/01/06 10:49:44;;;;;;;4.20;0.95;;;;;9.20;101722.00;;;;5028607;28;20207;-84
2022/01/06 10:52:11;;;;;;;2.13;0.65;;;;;9.30;101729.00;;;;5022317;28;20231;-84
2022/01/06 10:54:39;;;;;;;1.98;0.85;;;;;9.40;101722.00;;;;5024117;28;20208;-83
2022/01/06 10:57:09;;;;;;;4.45;1.13;;;;;9.40;101711.00;;;;5021165;28;20667;-85
2022/01/06 10:59:37;;;;;;;2.78;0.75;;;;;9.50;101712.00;;;;5017399;28;20204;-83
2022/01/06 11:02:05;;;;;;;4.72;1.33;;;;;9.50;101711.00;;;;5025564;28;20205;-84
2022/01/06 11:04:33;;;;;;;3.65;0.70;;;;;9.60;101712.00;;;;5015450;28;21144;-84
2022/01/06 11:07:02;;;;;;;8.80;1.52;;;;;9.70;101709.00;;;;5029208;28;20206;-83
2022/01/06 11:09:30;;;;;;;1.50;0.90;;;;;9.80;101712.00;;;;5015255;28;20204;-84
2022/01/06 11:14:45;;;;;;;3.72;1.15;;;;;9.90;101716.00;;;;5008717;28;20701;-82
2022/01/06 11:17:13;;;;;;;2.05;0.85;;;;;10.00;101715.00;;;;5028063;28;20659;-83
2022/01/06 11:19:40;;;;;;;5.63;1.02;;;;;10.10;101712.00;;;;5028672;28;20682;-83
2022/01/06 11:22:10;;;;;;;1.67;0.70;;;;;10.20;101718.00;;;;5026003;28;20201;-82
2022/01/06 11:24:38;;;;;;;3.65;1.10;;;;;10.20;101715.00;;;;5025602;28;20197;-83
2022/01/06 11:27:09;;;;;;;3.90;1.05;;;;;10.30;101713.00;;;;5018309;28;20666;-84
2022/01/06 11:29:40;;;;;;;6.03;1.20;;;;;10.40;101714.00;;;;5022600;28;20214;-84
2022/01/06 11:32:20;;;;;;;5.53;0.98;;;;;10.40;101714.00;;;;5023189;28;20251;-84
2022/01/06 11:34:50;;;;;;;3.25;1.15;;;;;10.60;101716.00;;;;5015741;28;20193;-85
2022/01/06 11:37:19;;;;;;;3.25;0.93;;;;;10.70;101720.00;;;;5008748;28;20845;-84
2022/01/06 11:39:46;;;;;;;3.20;0.82;;;;;10.80;101723.00;;;;5011688;28;20627;-82
2022/01/06 11:42:16;;;;;;;4.60;0.93;;;;;10.80;101718.00;;;;5015372;28;20211;-84
2022/01/06 11:44:52;;;;;;;4.32;0.70;;;;;10.90;101722.00;;;;5025661;28;20199;-85
2022/01/06 11:47:31;;;;;;;7.20;1.48;;;;;10.90;101720.00;;;;5027052;28;20219;-83
2022/01/06 11:50:09;;;;;;;5.32;1.27;;;;;10.90;101720.00;;;;5010914;28;20196;-85
2022/01/06 11:52:49;;;;;;;3.55;1.02;;;;;11.00;101723.00;;;;5007352;28;20228;-83
2022/01/06 11:55:16;;;;;;;6.00;1.13;;;;;11.10;101719.00;;;;5007404;28;20196;-83
2022/01/06 11:57:44;;;;;;;3.58;0.85;;;;;11.20;101719.00;;;;5006912;28;20193;-84
2022/01/06 12:00:17;;;;;;;2.40;0.88;;;;;11.20;101721.00;;;;5019913;28;20674;-83
2022/01/06 12:03:01;;;;;;;1.55;0.70;;;;;11.20;101717.00;;;;5017198;28;20205;-83
2022/01/06 12:05:41;;;;;;;3.92;1.05;;;;;11.40;101712.00;;;;5024922;28;20246;-83
2022/01/06 12:08:10;;;;;;;3.70;1.02;;;;;11.50;101715.00;;;;5029201;28;20279;-84
2022/01/06 12:10:42;;;;;;;2.60;0.63;;;;;11.50;101712.00;;;;5027842;28;20204;-83
2022/01/06 12:13:10;;;;;;;4.55;1.35;;;;;11.60;101710.00;;;;5025983;28;20559;-82
2022/01/06 12:15:48;;;;;;;1.98;0.93;;;;;11.70;101712.00;;;;5008715;28;20575;-83
2022/01/06 12:18:20;;;;;;;3.10;0.80;;;;;11.80;101699.00;;;;5018551;28;20286;-82
2022/01/06 12:20:48;;;;;;;3.17;0.70;;;;;11.90;101699.00;;;;5008442;28;20200;-84
2022/01/06 12:23:18;;;;;;;2.72;0.80;;;;;12.00;101701.00;;;;5013927;28;20204;-82
2022/01/06 12:25:55;;;;;;;2.53;0.60;;;;;12.00;101694.00;;;;5023195;28;20274;-82
2022/01/06 12:28:23;;;;;;;4.55;1.10;;;;;12.10;101693.00;;;;5027759;28;20200;-82